Time;durP1;ratioP1;P1;durP2;ratioP2;P2;SDS_P1;SDS_P2;PMS_P1;PMS_P2;Temp;Humidity;BMP_temperature;BMP_pressure;BME280_temperature;BME280_humidity;BME280_pressure;Samples;Min_cycle;Max_cycle;Signal;HPM_P1;HPM_P2
2024/01/01 00:00:13;;;;;;;10.90;8.07;;;8.60;99.90;;;;;;5017473;28;20873;-88
2024/01/01 00:02:43;;;;;;;13.10;11.70;;;8.60;99.90;;;;;;5017769;28;20867;-88
2024/01/01 00:05:11;;;;;;;11.47;7.50;;;8.60;99.90;;;;;;5022485;28;20452;-88
2024/01/01 00:07:40;;;;;;;9.80;6.70;;;8.60;99.90;;;;;;5021957;28;20459;-88
2024/01/01 00:10:09;;;;;;;8.80;5.50;;;8.60;99.90;;;;;;5021584;28;20440;-87
2024/01/01 00:12:37;;;;;;;9.77;8.27;;;8.60;99.90;;;;;;5022056;28;20459;-88
2024/01/01 00:15:06;;;;;;;8.03;5.43;;;8.60;99.90;;;;;;5022002;28;20471;-88
2024/01/01 00:17:36;;;;;;;13.33;9.03;;;8.70;99.90;;;;;;5021863;28;20472;-88
2024/01/01 00:20:06;;;;;;;12.43;6.30;;;8.60;99.90;;;;;;5023775;28;20440;-88
2024/01/01 00:22:34;;;;;;;12.13;8.23;;;8.70;99.90;;;;;;5021893;28;20487;-88
2024/01/01 00:25:03;;;;;;;9.57;6.97;;;8.70;99.90;;;;;;5021744;28;20471;-88
2024/01/01 00:27:34;;;;;;;7.43;6.73;;;8.70;99.90;;;;;;5022728;28;20431;-88
2024/01/01 00:30:02;;;;;;;8.90;7.83;;;8.60;99.90;;;;;;5020585;28;20487;-88
2024/01/01 00:32:31;;;;;;;10.97;7.17;;;8.70;99.90;;;;;;5021549;28;20455;-88
2024/01/01 00:35:03;;;;;;;9.23;8.20;;;8.70;99.90;;;;;;5021449;28;21020;-88
2024/01/01 00:37:31;;;;;;;11.17;9.37;;;8.70;99.90;;;;;;5021188;28;20455;-88
2024/01/01 00:40:00;;;;;;;8.33;6.80;;;8.70;99.90;;;;;;5021585;28;20447;-88
2024/01/01 00:42:32;;;;;;;9.30;8.40;;;8.70;99.90;;;;;;5021446;28;20478;-88
2024/01/01 00:45:02;;;;;;;8.50;6.67;;;8.70;99.90;;;;;;5021441;28;20985;-88
2024/01/01 00:47:30;;;;;;;10.67;8.33;;;8.70;99.90;;;;;;5020738;28;20540;-88
2024/01/01 00:50:00;;;;;;;9.00;6.07;;;8.70;99.90;;;;;;5021454;28;20487;-87
2024/01/01 00:52:30;;;;;;;9.37;6.47;;;8.70;99.90;;;;;;5021750;28;20451;-88
2024/01/01 00:55:00;;;;;;;8.80;7.97;;;8.70;99.90;;;;;;5021949;28;20467;-88
2024/01/01 00:57:28;;;;;;;8.53;7.50;;;8.70;99.90;;;;;;5021251;28;20495;-88
2024/01/01 00:59:56;;;;;;;9.27;7.27;;;8.70;99.90;;;;;;5021280;28;20993;-88
2024/01/01 01:02:24;;;;;;;13.30;9.53;;;8.70;99.90;;;;;;5022195;28;20459;-87
2024/01/01 01:04:53;;;;;;;8.60;7.00;;;8.70;99.90;;;;;;5021263;28;20495;-88
2024/01/01 01:07:35;;;;;;;7.40;6.60;;;8.70;99.90;;;;;;5020495;28;20494;-87
2024/01/01 01:10:04;;;;;;;9.97;7.30;;;8.70;99.90;;;;;;5020296;28;20455;-88
2024/01/01 01:12:32;;;;;;;8.97;6.00;;;8.70;99.90;;;;;;5024252;28;20470;-87
2024/01/01 01:15:01;;;;;;;7.13;6.43;;;8.60;99.90;;;;;;5021352;28;20526;-87
2024/01/01 01:17:29;;;;;;;9.10;6.80;;;8.70;99.90;;;;;;5021095;28;20546;-88
2024/01/01 01:19:57;;;;;;;9.03;7.23;;;8.70;99.90;;;;;;5019917;28;20555;-88
2024/01/01 01:22:26;;;;;;;9.20;6.17;;;8.70;99.90;;;;;;5020173;28;20458;-88
2024/01/01 01:24:55;;;;;;;8.53;7.00;;;8.70;99.90;;;;;;5020339;28;20965;-88
2024/01/01 01:27:24;;;;;;;8.90;5.70;;;8.70;99.90;;;;;;5019352;28;20462;-88
2024/01/01 01:29:52;;;;;;;11.13;6.53;;;8.70;99.90;;;;;;5019429;28;20539;-88
2024/01/01 01:32:20;;;;;;;8.50;6.93;;;8.70;99.90;;;;;;5019535;28;20455;-88
2024/01/01 01:34:49;;;;;;;10.50;8.17;;;8.70;99.90;;;;;;5019583;28;20472;-88
2024/01/01 01:37:17;;;;;;;11.80;7.97;;;8.70;99.90;;;;;;5017997;28;20509;-88
2024/01/01 01:39:46;;;;;;;10.80;7.53;;;8.70;99.90;;;;;;5016423;28;20467;-88
2024/01/01 01:42:16;;;;;;;11.80;7.87;;;8.70;99.90;;;;;;5017098;28;20440;-88
2024/01/01 01:44:44;;;;;;;10.30;8.93;;;8.70;99.90;;;;;;5015565;28;20479;-88
2024/01/01 01:47:12;;;;;;;12.83;8.83;;;8.70;99.90;;;;;;5016291;28;20502;-88
2024/01/01 01:49:41;;;;;;;10.40;7.50;;;8.70;99.90;;;;;;5015607;28;20486;-88
2024/01/01 01:52:11;;;;;;;8.47;7.50;;;8.70;99.90;;;;;;5015467;28;20818;-88
2024/01/01 01:54:39;;;;;;;10.10;8.30;;;8.70;99.90;;;;;;5015268;28;20818;-88
2024/01/01 01:57:08;;;;;;;10.50;8.43;;;8.70;99.90;;;;;;5015717;28;20458;-88
2024/01/01 01:59:38;;;;;;;10.77;8.37;;;8.70;99.90;;;;;;5015950;28;20845;-88
2024/01/01 02:02:06;;;;;;;9.90;8.30;;;8.70;99.90;;;;;;5016750;28;20463;-88
2024/01/01 02:04:35;;;;;;;10.83;9.20;;;8.60;99.90;;;;;;5016110;28;20476;-88
2024/01/01 02:07:03;;;;;;;11.87;8.63;;;8.70;99.90;;;;;;5015879;28;20451;-88
2024/01/01 02:09:32;;;;;;;11.83;8.90;;;8.70;99.90;;;;;;5016667;28;20510;-88
2024/01/01 02:12:01;;;;;;;13.23;8.93;;;8.70;99.90;;;;;;5015943;28;20949;-88
2024/01/01 02:14:30;;;;;;;9.50;8.33;;;8.70;99.90;;;;;;5015610;28;20480;-88
2024/01/01 02:16:59;;;;;;;10.70;8.57;;;8.70;99.90;;;;;;5016300;28;20456;-87
2024/01/01 02:19:28;;;;;;;11.03;8.73;;;8.70;99.90;;;;;;5016075;28;20525;-87
2024/01/01 02:21:57;;;;;;;11.57;8.57;;;8.70;99.90;;;;;;5015355;28;20992;-87
2024/01/01 02:24:27;;;;;;;11.00;8.50;;;8.70;99.90;;;;;;5015400;28;20480;-88
2024/01/01 02:26:55;;;;;;;12.07;9.77;;;8.70;99.90;;;;;;5015610;28;20478;-88
2024/01/01 02:29:23;;;;;;;13.47;9.47;;;8.70;99.90;;;;;;5015124;28;20436;-88
2024/01/01 02:31:52;;;;;;;13.83;9.13;;;8.70;99.90;;;;;;5015201;28;20474;-88
2024/01/01 02:34:22;;;;;;;13.23;9.60;;;8.70;99.90;;;;;;5014735;28;20973;-88
2024/01/01 02:36:50;;;;;;;12.57;8.83;;;8.70;99.90;;;;;;5015878;28;20436;-88
2024/01/01 02:39:18;;;;;;;12.23;10.20;;;8.70;99.90;;;;;;5014562;28;20502;-88
2024/01/01 02:41:48;;;;;;;14.37;9.93;;;8.70;99.90;;;;;;5014820;28;20957;-88
2024/01/01 02:44:18;;;;;;;15.10;10.40;;;8.70;99.90;;;;;;5014173;28;20490;-88
2024/01/01 02:46:47;;;;;;;13.80;9.30;;;8.70;99.90;;;;;;5014002;28;20934;-88
2024/01/01 02:49:16;;;;;;;12.40;11.10;;;8.70;99.90;;;;;;5014596;28;20480;-88
2024/01/01 02:51:44;;;;;;;12.70;10.07;;;8.70;99.90;;;;;;5013778;28;20455;-88
2024/01/01 02:54:12;;;;;;;11.23;9.90;;;8.70;99.90;;;;;;5013348;28;20468;-87
2024/01/01 02:56:41;;;;;;;14.80;10.70;;;8.70;99.90;;;;;;5013397;28;20498;-88
2024/01/01 02:59:11;;;;;;;14.30;11.20;;;8.70;99.90;;;;;;5013708;28;21013;-88
2024/01/01 03:01:40;;;;;;;15.93;11.43;;;8.70;99.90;;;;;;5014818;28;20424;-88
2024/01/01 03:04:08;;;;;;;15.83;12.40;;;8.70;99.90;;;;;;5013323;28;20482;-88
2024/01/01 03:06:37;;;;;;;18.60;12.93;;;8.70;99.90;;;;;;5013306;28;20458;-87
2024/01/01 03:09:07;;;;;;;21.30;12.87;;;8.70;99.90;;;;;;5013317;28;20498;-88
2024/01/01 03:11:36;;;;;;;16.90;14.80;;;8.70;99.90;;;;;;5013860;28;20447;-88
2024/01/01 03:14:04;;;;;;;18.67;15.40;;;8.70;99.90;;;;;;5014900;28;20502;-88
2024/01/01 03:16:34;;;;;;;17.20;15.40;;;8.70;99.90;;;;;;5015032;28;20444;-88
2024/01/01 03:19:02;;;;;;;19.33;16.87;;;8.70;99.90;;;;;;5014464;28;20459;-88
2024/01/01 03:21:32;;;;;;;20.53;17.93;;;8.70;99.90;;;;;;5014809;28;20447;-88
2024/01/01 03:24:00;;;;;;;21.43;19.13;;;8.70;99.90;;;;;;5015400;28;20808;-88
2024/01/01 03:26:29;;;;;;;21.87;19.57;;;8.70;99.90;;;;;;5015406;28;21015;-88
2024/01/01 03:28:57;;;;;;;24.80;19.93;;;8.70;99.90;;;;;;5014976;28;20456;-88
2024/01/01 03:31:25;;;;;;;20.10;17.93;;;8.80;99.90;;;;;;5014757;28;20455;-88
2024/01/01 03:33:55;;;;;;;21.80;19.50;;;8.70;99.90;;;;;;5014490;28;20472;-88
2024/01/01 03:36:24;;;;;;;23.67;21.27;;;8.80;99.90;;;;;;5015053;28;20452;-88
2024/01/01 03:38:52;;;;;;;21.10;18.93;;;8.80;99.90;;;;;;5015515;28;20951;-88
2024/01/01 03:41:24;;;;;;;21.83;19.73;;;8.80;99.90;;;;;;5014756;28;20468;-88
2024/01/01 03:43:52;;;;;;;22.90;20.50;;;8.80;99.90;;;;;;5014947;28;20468;-88
2024/01/01 03:46:20;;;;;;;23.53;20.53;;;8.70;99.90;;;;;;5014465;28;21007;-88
2024/01/01 03:48:49;;;;;;;21.27;19.17;;;8.80;99.90;;;;;;5015085;28;20472;-88
2024/01/01 03:51:19;;;;;;;24.03;21.27;;;8.70;99.90;;;;;;5014285;28;20827;-88
2024/01/01 03:53:47;;;;;;;22.40;20.10;;;8.80;99.90;;;;;;5014479;28;20522;-88
2024/01/01 03:56:16;;;;;;;22.73;20.30;;;8.80;99.90;;;;;;5014826;28;20518;-88
2024/01/01 03:58:45;;;;;;;22.67;20.37;;;8.80;99.90;;;;;;5014018;28;20530;-88
2024/01/01 04:01:13;;;;;;;23.80;21.50;;;8.80;99.90;;;;;;5014111;28;20472;-88
2024/01/01 04:03:42;;;;;;;25.33;21.23;;;8.80;99.90;;;;;;5014794;28;20471;-88
2024/01/01 04:06:10;;;;;;;24.07;21.80;;;8.80;99.90;;;;;;5018283;28;20452;-88
2024/01/01 04:08:40;;;;;;;22.00;19.70;;;8.70;99.90;;;;;;5017673;28;20463;-88
2024/01/01 04:11:08;;;;;;;20.60;18.60;;;8.70;99.90;;;;;;5017824;28;20894;-88
2024/01/01 04:13:37;;;;;;;21.10;18.07;;;8.70;99.90;;;;;;5017510;28;20475;-87
2024/01/01 04:16:08;;;;;;;22.87;19.67;;;8.70;99.90;;;;;;5017738;28;20467;-88
2024/01/01 04:18:37;;;;;;;19.97;17.93;;;8.70;99.90;;;;;;5017714;28;20448;-88
2024/01/01 04:21:05;;;;;;;20.37;18.23;;;8.70;99.90;;;;;;5017974;28;20479;-88
2024/01/01 04:23:34;;;;;;;23.67;18.47;;;8.70;99.90;;;;;;5017242;28;20534;-88
2024/01/01 04:26:04;;;;;;;18.50;16.67;;;8.70;99.90;;;;;;5017875;28;20460;-88
2024/01/01 04:28:33;;;;;;;19.17;17.20;;;8.70;99.90;;;;;;5018459;28;20444;-88
2024/01/01 04:31:01;;;;;;;18.67;16.70;;;8.70;99.90;;;;;;5017345;28;20448;-88
2024/01/01 04:33:29;;;;;;;16.03;14.40;;;8.70;99.90;;;;;;5017109;28;20491;-88
2024/01/01 04:35:58;;;;;;;14.73;12.90;;;8.70;99.90;;;;;;5017096;28;20456;-88
2024/01/01 04:38:26;;;;;;;10.13;9.10;;;8.70;99.90;;;;;;5017159;28;20487;-88
2024/01/01 04:40:54;;;;;;;12.33;8.80;;;8.70;99.90;;;;;;5016904;28;20471;-88
2024/01/01 04:43:25;;;;;;;8.17;7.33;;;8.70;99.90;;;;;;5017048;28;20503;-88
2024/01/01 04:45:53;;;;;;;7.70;6.40;;;8.80;99.90;;;;;;5017390;28;20440;-88
2024/01/01 04:48:22;;;;;;;8.23;5.57;;;8.70;99.90;;;;;;5016963;28;20451;-88
2024/01/01 04:50:50;;;;;;;6.20;4.80;;;8.80;99.90;;;;;;5016974;28;20475;-88
2024/01/01 04:53:19;;;;;;;8.23;4.90;;;8.80;99.90;;;;;;5016786;28;20468;-88
2024/01/01 04:55:47;;;;;;;5.30;3.57;;;8.80;99.90;;;;;;5016169;28;20459;-88
2024/01/01 04:58:15;;;;;;;5.27;4.17;;;8.80;99.90;;;;;;5016607;28;20452;-88
2024/01/01 05:00:45;;;;;;;5.80;3.70;;;8.70;99.90;;;;;;5015940;28;20484;-88
2024/01/01 05:03:14;;;;;;;5.93;2.80;;;8.70;99.90;;;;;;5016607;28;20557;-88
2024/01/01 05:05:43;;;;;;;4.60;2.40;;;8.70;99.90;;;;;;5016662;28;20463;-88
2024/01/01 05:08:11;;;;;;;7.47;3.37;;;8.70;99.90;;;;;;5016204;28;20969;-88
2024/01/01 05:10:40;;;;;;;7.23;3.20;;;8.70;99.90;;;;;;5017317;28;20926;-88
2024/01/01 05:13:09;;;;;;;5.27;2.50;;;8.70;99.90;;;;;;5016162;28;20829;-88
2024/01/01 05:15:38;;;;;;;6.17;2.80;;;8.70;99.90;;;;;;5015873;28;20451;-88
2024/01/01 05:18:07;;;;;;;4.83;3.47;;;8.70;99.90;;;;;;5016268;28;21033;-88
2024/01/01 05:20:36;;;;;;;4.80;3.83;;;8.70;99.90;;;;;;5016158;28;20471;-88
2024/01/01 05:23:05;;;;;;;6.33;4.27;;;8.70;99.90;;;;;;5015799;28;20952;-88
2024/01/01 05:25:34;;;;;;;8.00;4.97;;;8.70;99.90;;;;;;5016523;28;20459;-88
2024/01/01 05:28:05;;;;;;;8.80;6.37;;;8.70;99.90;;;;;;5016284;28;20991;-88
2024/01/01 05:30:33;;;;;;;9.17;6.97;;;8.70;99.90;;;;;;5015930;28;20455;-88
2024/01/01 05:33:02;;;;;;;9.07;6.90;;;8.70;99.90;;;;;;5015534;28;20468;-88
2024/01/01 05:35:32;;;;;;;9.70;7.13;;;8.60;99.90;;;;;;5015766;28;20451;-88
2024/01/01 05:38:01;;;;;;;9.07;6.30;;;8.60;99.90;;;;;;5015515;28;20489;-88
2024/01/01 05:40:30;;;;;;;8.20;6.80;;;8.60;99.90;;;;;;5014907;28;20488;-88
2024/01/01 05:42:58;;;;;;;8.30;7.20;;;8.60;99.90;;;;;;5015586;28;20444;-88
2024/01/01 05:45:27;;;;;;;9.37;7.63;;;8.60;99.90;;;;;;5015120;28;20452;-88
2024/01/01 05:47:55;;;;;;;7.63;6.83;;;8.60;99.90;;;;;;5015494;28;20991;-88
2024/01/01 05:50:23;;;;;;;10.37;7.40;;;8.60;99.90;;;;;;5016116;28;20471;-87
2024/01/01 05:52:53;;;;;;;9.67;7.10;;;8.50;99.90;;;;;;5014895;28;20444;-88
2024/01/01 05:55:22;;;;;;;8.00;6.37;;;8.50;99.90;;;;;;5014740;28;20456;-88
2024/01/01 05:57:50;;;;;;;10.00;6.40;;;8.50;99.90;;;;;;5015888;28;20957;-88
2024/01/01 06:00:19;;;;;;;8.00;6.53;;;8.40;99.90;;;;;;5014747;28;20571;-88
2024/01/01 06:02:48;;;;;;;8.93;6.13;;;8.40;99.90;;;;;;5014228;28;20479;-88
2024/01/01 06:05:16;;;;;;;11.80;7.43;;;8.40;99.90;;;;;;5014441;28;20483;-88
2024/01/01 06:07:45;;;;;;;8.27;6.20;;;8.30;99.90;;;;;;5014088;28;20456;-87
2024/01/01 06:10:15;;;;;;;7.40;6.70;;;8.30;99.90;;;;;;5014312;28;20455;-88
2024/01/01 06:12:43;;;;;;;10.00;7.03;;;8.30;99.90;;;;;;5014139;28;20453;-88
2024/01/01 06:15:12;;;;;;;8.60;6.40;;;8.20;99.90;;;;;;5014007;28;20993;-88
2024/01/01 06:17:41;;;;;;;9.30;6.77;;;8.20;99.90;;;;;;5014004;28;20452;-88
2024/01/01 06:20:10;;;;;;;11.67;7.00;;;8.20;99.90;;;;;;5015445;28;20450;-88
2024/01/01 06:22:39;;;;;;;6.87;6.17;;;8.20;99.90;;;;;;5015048;28;20478;-88
2024/01/01 06:25:08;;;;;;;8.63;5.70;;;8.10;99.90;;;;;;5015255;28;20479;-88
2024/01/01 06:27:38;;;;;;;8.73;5.90;;;8.10;99.90;;;;;;5014727;28;20495;-88
2024/01/01 06:30:07;;;;;;;7.20;4.97;;;8.10;99.90;;;;;;5016009;28;20867;-88
2024/01/01 06:32:36;;;;;;;10.70;5.87;;;8.10;99.90;;;;;;5017953;28;20474;-88
2024/01/01 06:35:05;;;;;;;10.17;5.43;;;8.00;99.90;;;;;;5015476;28;20828;-88
2024/01/01 06:37:33;;;;;;;9.63;5.50;;;8.00;99.90;;;;;;5014046;28;20452;-88
2024/01/01 06:40:03;;;;;;;7.17;5.10;;;8.00;99.90;;;;;;5014414;28;20964;-88
2024/01/01 06:42:31;;;;;;;8.60;5.40;;;8.00;99.90;;;;;;5014302;28;20471;-88
2024/01/01 06:45:07;;;;;;;8.90;5.30;;;8.00;99.90;;;;;;5014499;28;20525;-88
2024/01/01 06:47:35;;;;;;;9.30;5.40;;;8.00;99.90;;;;;;5014370;28;20456;-88
2024/01/01 06:50:05;;;;;;;7.40;5.40;;;8.00;99.90;;;;;;5014431;28;20473;-88
2024/01/01 06:52:33;;;;;;;10.97;5.93;;;8.00;99.90;;;;;;5014530;28;20458;-88
2024/01/01 06:55:01;;;;;;;8.77;5.53;;;8.00;99.90;;;;;;5013830;28;20890;-88
2024/01/01 06:57:30;;;;;;;9.07;5.63;;;7.90;99.90;;;;;;5013901;28;20466;-88
2024/01/01 06:59:58;;;;;;;8.17;5.50;;;7.90;99.90;;;;;;5013893;28;20444;-88
2024/01/01 07:02:28;;;;;;;7.43;5.53;;;7.90;99.90;;;;;;5013615;28;20474;-88
2024/01/01 07:04:56;;;;;;;9.87;6.40;;;7.90;99.90;;;;;;5013173;28;20484;-88
2024/01/01 07:07:24;;;;;;;10.00;6.10;;;7.90;99.90;;;;;;5013331;28;20448;-87
2024/01/01 07:09:53;;;;;;;10.33;5.60;;;7.90;99.90;;;;;;5013327;28;20883;-88
2024/01/01 07:12:23;;;;;;;7.93;5.20;;;7.90;99.90;;;;;;5013053;28;20862;-88
2024/01/01 07:14:52;;;;;;;8.77;5.93;;;7.90;99.90;;;;;;5013224;28;20472;-88
2024/01/01 07:17:21;;;;;;;10.70;5.37;;;7.90;99.90;;;;;;5014660;28;20442;-88
2024/01/01 07:19:52;;;;;;;7.17;5.60;;;7.90;99.90;;;;;;5014417;28;20519;-88
2024/01/01 07:22:20;;;;;;;6.90;4.50;;;7.80;99.90;;;;;;5013157;28;20828;-88
2024/01/01 07:24:50;;;;;;;11.10;6.20;;;7.80;99.90;;;;;;5013253;28;20505;-88
2024/01/01 07:27:18;;;;;;;7.13;4.80;;;7.80;99.90;;;;;;5014262;28;20494;-88
2024/01/01 07:29:46;;;;;;;8.77;5.50;;;7.80;99.90;;;;;;5012960;28;20460;-88
2024/01/01 07:32:15;;;;;;;11.13;5.17;;;7.80;99.90;;;;;;5013077;28;20463;-88
2024/01/01 07:34:43;;;;;;;8.97;5.00;;;7.80;99.90;;;;;;5013130;28;21011;-88
2024/01/01 07:37:13;;;;;;;8.87;4.87;;;7.80;99.90;;;;;;5012955;28;20557;-88
2024/01/01 07:39:42;;;;;;;8.20;5.50;;;7.80;99.90;;;;;;5014190;28;20454;-88
2024/01/01 07:42:10;;;;;;;9.47;5.47;;;7.80;99.90;;;;;;5016745;28;20820;-89
2024/01/01 07:44:40;;;;;;;7.40;4.43;;;7.80;99.90;;;;;;5016770;28;20471;-88
2024/01/01 07:47:08;;;;;;;7.90;4.43;;;7.80;99.90;;;;;;5017638;28;20455;-88
2024/01/01 07:49:37;;;;;;;8.07;4.23;;;7.80;99.90;;;;;;5018285;28;20485;-88
2024/01/01 07:52:05;;;;;;;9.80;4.87;;;7.80;99.90;;;;;;5018302;28;20463;-88
2024/01/01 07:54:38;;;;;;;8.13;4.47;;;7.80;99.90;;;;;;5018480;28;20865;-88
2024/01/01 07:57:07;;;;;;;8.53;4.40;;;7.80;99.90;;;;;;5018458;28;20440;-88
2024/01/01 07:59:35;;;;;;;11.37;4.80;;;7.80;99.90;;;;;;5017230;28;20458;-88
2024/01/01 08:02:03;;;;;;;9.03;4.70;;;7.80;99.90;;;;;;5016994;28;20545;-88
2024/01/01 08:04:32;;;;;;;10.47;3.63;;;7.80;99.90;;;;;;5017237;28;21087;-88
2024/01/01 08:07:01;;;;;;;8.10;4.70;;;7.80;99.90;;;;;;5017169;28;20976;-88
2024/01/01 08:09:29;;;;;;;9.13;4.20;;;7.80;99.90;;;;;;5017191;28;20466;-88
2024/01/01 08:12:02;;;;;;;8.70;4.23;;;7.80;99.90;;;;;;5001021;28;20455;-88
2024/01/01 08:14:30;;;;;;;7.33;4.03;;;7.80;99.90;;;;;;5017223;28;20482;-88
2024/01/01 08:16:59;;;;;;;9.47;3.93;;;7.80;99.90;;;;;;5017014;28;20450;-88
2024/01/01 08:19:27;;;;;;;9.40;4.00;;;7.80;99.90;;;;;;5016739;28;20975;-88
2024/01/01 08:21:55;;;;;;;10.60;4.30;;;7.80;99.90;;;;;;5016557;28;20458;-88
2024/01/01 08:24:23;;;;;;;8.57;4.07;;;7.80;99.90;;;;;;5016440;28;20470;-88
2024/01/01 08:26:52;;;;;;;7.33;3.77;;;7.80;99.90;;;;;;5018586;28;20439;-87
2024/01/01 08:29:22;;;;;;;9.77;3.27;;;7.80;99.90;;;;;;5016874;28;20447;-88
2024/01/01 08:31:50;;;;;;;9.27;3.80;;;7.80;99.90;;;;;;5017150;28;20824;-87
2024/01/01 08:34:18;;;;;;;10.57;5.67;;;7.80;99.90;;;;;;5017342;28;20479;-87
2024/01/01 08:36:46;;;;;;;10.43;4.50;;;7.90;99.90;;;;;;5017867;28;20454;-87
2024/01/01 08:39:15;;;;;;;11.10;4.60;;;7.90;99.90;;;;;;5017479;28;20999;-87
2024/01/01 08:41:44;;;;;;;7.40;2.90;;;7.90;99.90;;;;;;5018589;28;20471;-87
2024/01/01 08:44:12;;;;;;;7.80;3.63;;;7.90;99.90;;;;;;5016893;28;20494;-87
2024/01/01 08:46:42;;;;;;;5.87;3.10;;;7.90;99.90;;;;;;5019192;28;20506;-87
2024/01/01 08:49:10;;;;;;;10.77;3.80;;;7.90;99.90;;;;;;5017484;28;20460;-87
2024/01/01 08:51:39;;;;;;;8.83;3.83;;;7.90;99.90;;;;;;5017591;28;20500;-87
2024/01/01 08:54:07;;;;;;;10.07;3.70;;;7.90;99.90;;;;;;5017669;28;21063;-87
2024/01/01 08:56:35;;;;;;;5.70;3.17;;;7.90;99.90;;;;;;5017896;28;20448;-87
2024/01/01 08:59:03;;;;;;;6.90;3.47;;;8.00;99.90;;;;;;5017759;28;20456;-87
2024/01/01 09:01:32;;;;;;;9.70;3.50;;;8.00;99.90;;;;;;5018007;28;20452;-87
2024/01/01 09:04:04;;;;;;;9.90;3.33;;;8.00;99.90;;;;;;5016871;28;20529;-87
2024/01/01 09:06:32;;;;;;;5.93;2.90;;;8.00;99.90;;;;;;5016972;28;20945;-87
2024/01/01 09:09:01;;;;;;;10.47;4.17;;;8.00;99.90;;;;;;5017322;28;20490;-87
2024/01/01 09:11:29;;;;;;;7.70;3.07;;;8.00;99.90;;;;;;5016554;28;20563;-87
2024/01/01 09:13:57;;;;;;;6.40;3.07;;;8.00;99.90;;;;;;5017719;28;20857;-87
2024/01/01 09:16:29;;;;;;;7.10;2.83;;;8.00;99.90;;;;;;5017403;28;20458;-87
2024/01/01 09:18:59;;;;;;;6.23;3.10;;;8.10;99.90;;;;;;5016755;28;20447;-87
2024/01/01 09:21:29;;;;;;;6.37;2.60;;;8.10;99.90;;;;;;5016173;28;20498;-87
2024/01/01 09:24:00;;;;;;;9.20;3.40;;;8.10;99.90;;;;;;5016060;28;20487;-87
2024/01/01 09:26:30;;;;;;;8.00;3.10;;;8.10;99.90;;;;;;5016696;28;20467;-87
2024/01/01 09:28:58;;;;;;;10.83;3.70;;;8.10;99.90;;;;;;5018055;28;20462;-87
2024/01/01 09:31:27;;;;;;;7.13;3.90;;;8.10;99.90;;;;;;5019204;28;20463;-87
2024/01/01 09:34:00;;;;;;;10.23;3.63;;;8.20;99.90;;;;;;5017790;28;20478;-87
2024/01/01 09:36:30;;;;;;;7.70;3.03;;;8.20;99.90;;;;;;5017900;28;20447;-87
2024/01/01 09:38:59;;;;;;;9.27;3.40;;;8.20;99.90;;;;;;5017414;28;20444;-87
2024/01/01 09:41:28;;;;;;;6.70;3.10;;;8.20;99.90;;;;;;5017567;28;20451;-87
2024/01/01 09:43:56;;;;;;;7.50;3.27;;;8.20;99.90;;;;;;5018279;28;20475;-87
2024/01/01 09:46:28;;;;;;;6.70;3.23;;;8.20;99.90;;;;;;5017436;28;20452;-87
2024/01/01 09:48:57;;;;;;;11.30;3.80;;;8.20;99.90;;;;;;5017420;28;20450;-87
2024/01/01 09:51:25;;;;;;;7.90;2.70;;;8.20;99.90;;;;;;5017047;28;20458;-87
2024/01/01 09:53:55;;;;;;;8.17;3.10;;;8.20;99.90;;;;;;5017084;28;20499;-87
2024/01/01 09:56:23;;;;;;;11.80;4.27;;;8.20;99.90;;;;;;5017731;28;20447;-87
2024/01/01 09:58:51;;;;;;;9.53;3.90;;;8.20;99.90;;;;;;5017907;28;20455;-87
2024/01/01 10:01:20;;;;;;;7.83;3.97;;;8.20;99.90;;;;;;5016810;28;20452;-87
2024/01/01 10:04:03;;;;;;;6.60;3.67;;;8.20;99.90;;;;;;5018666;28;20533;-87
2024/01/01 10:06:33;;;;;;;6.17;2.97;;;8.20;99.90;;;;;;5017297;28;20467;-87
2024/01/01 10:09:10;;;;;;;8.73;4.03;;;8.30;99.90;;;;;;5016758;28;20804;-87
2024/01/01 10:11:41;;;;;;;5.67;2.90;;;8.30;99.90;;;;;;5016860;28;20456;-87
2024/01/01 10:14:11;;;;;;;8.73;3.27;;;8.30;99.90;;;;;;5016251;28;20564;-87
2024/01/01 10:16:40;;;;;;;7.63;3.17;;;8.30;99.90;;;;;;5016704;28;20455;-87
2024/01/01 10:19:08;;;;;;;6.80;2.77;;;8.30;99.90;;;;;;5016254;28;20456;-87
2024/01/01 10:21:40;;;;;;;5.47;2.60;;;8.40;99.90;;;;;;5017948;28;20941;-87
2024/01/01 10:24:21;;;;;;;7.47;2.57;;;8.40;99.90;;;;;;5016115;28;20515;-87
2024/01/01 10:27:02;;;;;;;8.60;2.70;;;8.40;99.90;;;;;;5016197;28;20440;-87
2024/01/01 10:29:35;;;;;;;5.10;2.90;;;8.50;99.90;;;;;;5017391;28;20432;-87
2024/01/01 10:32:04;;;;;;;4.40;2.37;;;8.50;99.90;;;;;;5016098;28;20448;-87
2024/01/01 10:34:35;;;;;;;4.33;2.50;;;8.50;99.90;;;;;;5015659;28;20478;-87
2024/01/01 10:37:03;;;;;;;5.53;3.30;;;8.50;99.90;;;;;;5016610;28;20440;-87
2024/01/01 10:39:34;;;;;;;6.93;2.83;;;8.60;99.90;;;;;;5017043;28;20439;-87
2024/01/01 10:42:04;;;;;;;4.40;2.70;;;8.60;99.90;;;;;;5019494;28;20448;-87
2024/01/01 10:44:32;;;;;;;7.20;2.97;;;8.60;99.90;;;;;;5020375;28;20471;-87
2024/01/01 10:47:04;;;;;;;6.97;3.20;;;8.60;99.90;;;;;;5020245;28;20452;-87
2024/01/01 10:49:33;;;;;;;7.27;3.70;;;8.70;99.90;;;;;;5021370;28;20451;-87
2024/01/01 10:52:19;;;;;;;7.30;3.13;;;8.70;99.90;;;;;;5020580;28;20452;-87
2024/01/01 10:55:11;;;;;;;7.70;2.97;;;8.70;99.90;;;;;;5020917;28;20993;-87
2024/01/01 10:58:13;;;;;;;6.70;3.07;;;8.70;99.90;;;;;;5020256;28;20802;-87
2024/01/01 11:00:51;;;;;;;10.27;3.20;;;8.80;99.90;;;;;;4993619;28;20451;-87
2024/01/01 11:03:20;;;;;;;6.30;3.43;;;8.80;99.90;;;;;;5022278;28;20566;-87
2024/01/01 11:05:50;;;;;;;7.80;3.63;;;8.80;99.90;;;;;;5019561;28;20552;-87
2024/01/01 11:08:26;;;;;;;4.33;2.67;;;8.80;99.90;;;;;;5019762;28;20470;-88
2024/01/01 11:10:57;;;;;;;4.27;2.97;;;8.90;99.90;;;;;;5019183;28;20432;-87
2024/01/01 11:13:56;;;;;;;8.50;3.50;;;8.90;99.90;;;;;;5019235;28;20478;-87
2024/01/01 11:16:26;;;;;;;4.40;2.93;;;8.90;99.90;;;;;;5019288;28;20550;-87
2024/01/01 11:18:54;;;;;;;8.67;3.13;;;8.90;99.90;;;;;;5018575;28;20463;-87
2024/01/01 11:21:28;;;;;;;9.93;3.03;;;9.00;99.90;;;;;;5020337;28;20479;-87
2024/01/01 11:23:56;;;;;;;8.80;3.10;;;9.00;99.90;;;;;;5021073;28;20518;-87
2024/01/01 11:26:47;;;;;;;8.70;3.63;;;9.10;99.90;;;;;;5019483;28;20455;-87
2024/01/01 11:29:27;;;;;;;4.13;2.60;;;9.10;99.90;;;;;;5019552;28;20456;-87
2024/01/01 11:32:02;;;;;;;5.80;3.00;;;9.10;99.90;;;;;;5021622;28;20439;-87
2024/01/01 11:34:31;;;;;;;9.87;3.50;;;9.20;99.90;;;;;;5025310;28;20495;-87
2024/01/01 11:37:20;;;;;;;3.80;2.70;;;9.20;99.90;;;;;;5020446;28;20486;-87
2024/01/01 11:39:58;;;;;;;5.90;2.80;;;9.20;99.90;;;;;;5018693;28;20497;-87
2024/01/01 11:42:28;;;;;;;5.37;2.53;;;9.20;99.90;;;;;;5019267;28;20517;-87
2024/01/01 11:45:10;;;;;;;8.73;3.50;;;9.20;99.90;;;;;;5018348;28;20544;-87
2024/01/01 11:47:39;;;;;;;10.90;2.70;;;9.20;99.90;;;;;;5018609;28;20519;-87
2024/01/01 11:50:09;;;;;;;5.37;2.57;;;9.20;99.90;;;;;;5019412;28;20502;-87
2024/01/01 11:52:38;;;;;;;6.93;2.77;;;9.20;99.90;;;;;;5018852;28;20452;-87
2024/01/01 11:55:07;;;;;;;4.43;2.80;;;9.20;99.90;;;;;;5019263;28;20472;-87
2024/01/01 11:57:39;;;;;;;5.27;2.53;;;9.10;99.90;;;;;;5018989;28;20479;-88
2024/01/01 12:00:09;;;;;;;4.83;2.90;;;9.10;99.90;;;;;;5018631;28;20961;-87
2024/01/01 12:02:37;;;;;;;5.70;3.10;;;9.10;99.90;;;;;;5019436;28;20447;-87
2024/01/01 12:05:06;;;;;;;8.77;2.87;;;9.10;99.90;;;;;;5016939;28;20471;-87
2024/01/01 12:07:35;;;;;;;6.23;3.13;;;9.10;99.90;;;;;;5016462;28;20452;-87
2024/01/01 12:10:07;;;;;;;8.27;3.73;;;9.00;99.90;;;;;;5016158;28;20467;-87
2024/01/01 12:12:38;;;;;;;5.60;2.43;;;9.00;99.90;;;;;;5015408;28;21011;-87
2024/01/01 12:15:11;;;;;;;5.33;2.83;;;9.00;99.90;;;;;;5015425;28;20471;-87
2024/01/01 12:17:43;;;;;;;5.60;2.70;;;9.00;99.90;;;;;;5015299;28;20451;-87
2024/01/01 12:20:15;;;;;;;7.20;2.70;;;9.00;99.90;;;;;;5015538;28;20447;-87
2024/01/01 12:22:45;;;;;;;5.80;2.67;;;9.00;99.90;;;;;;5015166;28;20462;-87
2024/01/01 12:25:17;;;;;;;3.40;2.10;;;9.00;99.90;;;;;;5014326;28;20525;-87
2024/01/01 12:28:04;;;;;;;5.27;2.73;;;9.00;99.90;;;;;;5017210;28;20502;-87
2024/01/01 12:30:32;;;;;;;2.70;2.27;;;9.00;99.90;;;;;;5018260;28;20451;-87
2024/01/01 12:33:01;;;;;;;6.10;3.50;;;9.00;99.90;;;;;;5017295;28;20892;-87
2024/01/01 12:35:30;;;;;;;7.27;3.30;;;9.00;99.90;;;;;;5017591;28;20451;-87
2024/01/01 12:37:58;;;;;;;5.57;3.40;;;9.00;99.90;;;;;;5016704;28;20549;-87
2024/01/01 12:40:28;;;;;;;5.93;2.90;;;9.00;99.90;;;;;;5017090;28;20887;-87
2024/01/01 12:42:59;;;;;;;7.50;2.87;;;9.00;99.90;;;;;;5017454;28;20803;-88
2024/01/01 12:45:27;;;;;;;5.97;2.80;;;9.00;99.90;;;;;;5022365;28;20464;-87
2024/01/01 12:47:59;;;;;;;8.00;2.53;;;9.00;99.90;;;;;;5021860;28;20494;-87
2024/01/01 12:50:27;;;;;;;6.90;2.97;;;9.00;99.90;;;;;;5021487;28;20491;-87
2024/01/01 12:52:57;;;;;;;7.13;2.87;;;9.00;99.90;;;;;;5022352;28;20527;-88
2024/01/01 12:55:26;;;;;;;3.30;2.27;;;9.00;99.90;;;;;;5022340;28;20476;-87
2024/01/01 12:57:54;;;;;;;6.43;2.70;;;9.00;99.90;;;;;;5021769;28;20477;-87
2024/01/01 13:00:23;;;;;;;4.23;2.70;;;9.00;99.90;;;;;;5021746;28;20460;-87
2024/01/01 13:02:52;;;;;;;4.57;2.37;;;9.00;99.90;;;;;;5021753;28;20448;-88
2024/01/01 13:05:20;;;;;;;7.93;3.57;;;9.00;99.90;;;;;;5022274;28;20535;-87